createdAt,value
2022-09-30T00:02:25.819Z,16.80
2022-09-30T00:04:47.477Z,18.10
2022-09-30T00:06:19.472Z,17.00
2022-09-30T00:08:20.389Z,16.70
2022-09-30T00:11:00.410Z,16.30
2022-09-30T00:21:20.929Z,16.00
2022-09-30T00:27:23.504Z,16.10
2022-09-30T00:28:52.395Z,16.80
2022-09-30T00:35:37.663Z,16.50
2022-09-30T00:38:22.644Z,17.40
2022-09-30T00:41:04.194Z,16.70
2022-09-30T00:47:31.541Z,16.70
2022-09-30T00:48:41.640Z,15.90
2022-09-30T00:54:36.816Z,16.10
2022-09-30T00:56:06.883Z,16.20
2022-09-30T00:58:03.783Z,15.50
2022-09-30T01:00:34.392Z,17.00
2022-09-30T01:07:48.667Z,16.10
2022-09-30T01:10:23.111Z,16.20
2022-09-30T01:17:40.882Z,16.20
2022-09-30T01:20:30.843Z,15.60
2022-09-30T01:22:49.300Z,15.60
2022-09-30T01:25:18.482Z,16.50
2022-09-30T01:29:47.263Z,15.40
2022-09-30T01:33:13.054Z,15.60
2022-09-30T01:35:18.363Z,15.10
2022-09-30T01:37:06.528Z,15.30
2022-09-30T01:40:56.329Z,15.70
2022-09-30T01:42:53.446Z,15.10
2022-09-30T01:45:03.380Z,15.40
2022-09-30T01:49:53.693Z,15.50
2022-09-30T02:01:39.671Z,15.70
2022-09-30T02:04:04.800Z,16.00
2022-09-30T02:06:30.468Z,15.10
2022-09-30T02:08:05.454Z,15.00
2022-09-30T02:09:33.850Z,15.20
2022-09-30T02:12:27.544Z,15.50
2022-09-30T02:13:58.489Z,15.60
2022-09-30T02:17:33.996Z,14.60
2022-09-30T02:20:28.186Z,16.40
2022-09-30T02:23:57.669Z,15.00
2022-09-30T02:25:58.372Z,15.10
2022-09-30T02:27:50.985Z,15.30
2022-09-30T02:32:07.079Z,15.60
2022-09-30T02:35:37.269Z,16.30
2022-09-30T02:37:40.850Z,16.10
2022-09-30T02:39:08.041Z,14.50
2022-09-30T02:40:43.082Z,15.50
2022-09-30T02:42:13.181Z,14.70
2022-09-30T02:44:34.659Z,15.50
2022-09-30T02:46:56.996Z,14.50
2022-09-30T02:48:34.370Z,16.50
2022-09-30T02:56:05.560Z,15.50
2022-09-30T02:58:01.564Z,16.10
2022-09-30T03:01:15.753Z,15.90
2022-09-30T03:03:19.675Z,16.50
2022-09-30T03:04:53.924Z,18.80
2022-09-30T03:06:29.782Z,19.30
2022-09-30T03:08:34.006Z,18.30
2022-09-30T03:10:09.632Z,18.40
2022-09-30T03:11:42.533Z,19.40
2022-09-30T03:16:04.360Z,21.00
2022-09-30T03:19:11.282Z,18.40
2022-09-30T03:21:12.015Z,19.00
2022-09-30T03:22:40.295Z,19.10
2022-09-30T03:25:43.352Z,19.90
2022-09-30T03:30:47.529Z,19.70
2022-09-30T03:33:53.908Z,18.80
2022-09-30T03:36:13.561Z,18.90
2022-09-30T03:48:20.859Z,18.50
2022-09-30T03:50:36.773Z,18.80
2022-09-30T03:55:49.549Z,19.60
2022-09-30T03:57:21.526Z,18.80
2022-09-30T04:00:11.088Z,18.20
2022-09-30T04:02:16.559Z,18.90
2022-09-30T04:03:45.541Z,17.50
2022-09-30T04:06:28.926Z,19.10
2022-09-30T04:07:59.097Z,18.80
2022-09-30T04:09:47.888Z,19.10
2022-09-30T04:13:35.750Z,17.30
2022-09-30T04:15:37.639Z,18.40
2022-09-30T04:19:17.334Z,17.90
2022-09-30T04:27:55.241Z,17.40
2022-09-30T04:29:26.900Z,17.60
2022-09-30T04:33:28.333Z,17.30
2022-09-30T04:35:19.924Z,17.20
2022-09-30T04:37:11.066Z,17.50
2022-09-30T04:38:38.535Z,17.00
2022-09-30T04:40:57.366Z,17.60
2022-09-30T04:44:33.402Z,17.90
2022-09-30T04:46:33.725Z,17.90
2022-09-30T04:48:11.617Z,18.40
2022-09-30T04:54:43.283Z,18.90
2022-09-30T04:57:03.379Z,19.00
2022-09-30T05:00:58.822Z,19.00
2022-09-30T05:04:29.116Z,17.80
2022-09-30T05:05:58.746Z,17.80
2022-09-30T05:11:18.114Z,19.10
2022-09-30T05:13:37.284Z,18.50
2022-09-30T05:16:09.605Z,17.10
2022-09-30T05:19:28.769Z,17.80
2022-09-30T05:21:56.737Z,17.20
2022-09-30T05:24:26.994Z,18.50
2022-09-30T05:25:58.706Z,17.90
2022-09-30T05:27:26.912Z,19.50
2022-09-30T05:33:41.878Z,18.60
2022-09-30T05:38:01.436Z,18.90
2022-09-30T05:39:31.220Z,19.00
2022-09-30T05:43:50.508Z,19.70
2022-09-30T05:48:04.727Z,20.60
2022-09-30T05:49:56.255Z,20.20
2022-09-30T05:53:19.249Z,20.00
2022-09-30T05:57:37.411Z,20.80
2022-09-30T06:00:04.312Z,21.30
2022-09-30T06:01:53.110Z,24.00
2022-09-30T06:08:50.921Z,22.80
2022-09-30T06:10:20.293Z,24.50
2022-09-30T06:13:01.395Z,24.10
2022-09-30T06:18:06.925Z,25.50
2022-09-30T06:21:08.334Z,26.70
2022-09-30T06:24:06.481Z,28.50
2022-09-30T06:26:12.091Z,27.30
2022-09-30T06:29:31.255Z,28.50
2022-09-30T06:35:05.559Z,29.60
2022-09-30T06:36:34.108Z,29.10
2022-09-30T06:41:01.719Z,26.80
2022-09-30T06:43:37.343Z,28.80
2022-09-30T06:47:21.329Z,29.90
2022-09-30T06:53:41.648Z,28.00
2022-09-30T06:59:23.964Z,27.80
2022-09-30T07:02:38.943Z,27.10
2022-09-30T07:04:08.782Z,27.70
2022-09-30T07:06:39.492Z,26.30
2022-09-30T07:08:10.277Z,26.70
2022-09-30T07:09:38.703Z,27.00
2022-09-30T07:11:28.081Z,25.50
2022-09-30T07:18:34.306Z,26.00
2022-09-30T07:20:56.979Z,25.50
2022-09-30T07:24:53.793Z,25.30
2022-09-30T07:27:45.318Z,25.90
2022-09-30T07:30:14.443Z,22.60
2022-09-30T07:35:44.999Z,24.90
2022-09-30T07:37:12.941Z,26.60
2022-09-30T07:39:30.636Z,24.10
2022-09-30T07:41:01.502Z,24.00
2022-09-30T07:44:32.489Z,24.50
2022-09-30T07:46:53.683Z,24.20
2022-09-30T07:49:13.766Z,26.10
2022-09-30T07:51:02.419Z,27.40
2022-09-30T07:53:40.927Z,23.10
2022-09-30T07:56:09.928Z,24.60
2022-09-30T07:58:07.255Z,23.80
2022-09-30T08:11:51.544Z,23.70
2022-09-30T08:14:21.332Z,25.20
2022-09-30T08:18:11.878Z,25.20
2022-09-30T08:19:42.090Z,24.00
2022-09-30T08:22:44.141Z,23.20
2022-09-30T08:26:52.196Z,21.90
2022-09-30T08:32:56.828Z,20.40
2022-09-30T08:34:23.173Z,21.40
2022-09-30T08:39:12.547Z,21.10
2022-09-30T08:41:30.453Z,21.40
2022-09-30T08:45:40.746Z,19.80
2022-09-30T08:47:09.750Z,20.80
2022-09-30T08:49:03.397Z,19.60
2022-09-30T08:55:53.544Z,20.40
2022-09-30T08:59:53.290Z,17.60
2022-09-30T09:01:43.215Z,16.80
2022-09-30T09:03:11.398Z,16.90
2022-09-30T09:05:12.075Z,16.80
2022-09-30T09:09:48.230Z,16.50
2022-09-30T09:12:54.523Z,17.10
2022-09-30T09:14:56.496Z,17.10
2022-09-30T09:19:09.303Z,16.00
2022-09-30T09:22:09.205Z,16.40
2022-09-30T09:24:10.978Z,16.10
2022-09-30T09:25:40.177Z,16.90
2022-09-30T09:27:09.161Z,15.80
2022-09-30T09:30:28.658Z,17.20
2022-09-30T09:31:56.778Z,16.40
2022-09-30T09:33:47.120Z,15.50
2022-09-30T09:35:34.053Z,14.70
2022-09-30T09:37:02.922Z,15.50
2022-09-30T09:39:42.429Z,15.10
2022-09-30T09:44:27.705Z,15.70
2022-09-30T09:51:37.810Z,15.30
2022-09-30T09:54:36.702Z,16.20
2022-09-30T10:00:20.853Z,15.60
2022-09-30T10:02:42.385Z,15.80
2022-09-30T10:08:50.414Z,15.10
2022-09-30T10:11:13.403Z,14.60
2022-09-30T10:15:32.118Z,13.70
2022-09-30T10:21:08.680Z,13.40
2022-09-30T10:23:09.550Z,14.20
2022-09-30T10:26:29.147Z,13.50
2022-09-30T10:28:26.593Z,13.80
2022-09-30T10:30:25.988Z,13.90
2022-09-30T10:34:15.208Z,13.80
2022-09-30T10:35:42.739Z,13.20
2022-09-30T10:42:23.612Z,13.80
2022-09-30T10:43:49.823Z,14.20
2022-09-30T10:47:39.547Z,13.30
2022-09-30T10:49:09.416Z,13.90
2022-09-30T10:55:13.821Z,11.80
2022-09-30T10:57:09.305Z,13.00
2022-09-30T11:00:57.952Z,12.00
2022-09-30T11:03:48.318Z,11.50
2022-09-30T11:06:38.747Z,11.40
2022-09-30T11:10:13.845Z,10.50
2022-09-30T11:15:10.139Z,10.30
2022-09-30T11:17:27.886Z,10.90
2022-09-30T11:18:57.235Z,10.70
2022-09-30T11:20:26.613Z,11.00
2022-09-30T11:22:44.249Z,10.30
2022-09-30T11:28:18.798Z,10.40
2022-09-30T11:31:46.884Z,10.70
2022-09-30T11:33:16.150Z,9.70
2022-09-30T11:38:01.470Z,9.80
2022-09-30T11:39:30.352Z,10.00
2022-09-30T11:40:59.283Z,9.10
2022-09-30T11:43:54.929Z,8.30
2022-09-30T11:46:42.601Z,9.00
2022-09-30T11:49:11.795Z,9.40
2022-09-30T11:53:57.213Z,8.40
2022-09-30T11:58:00.679Z,9.30
2022-09-30T12:00:08.645Z,8.60
2022-09-30T12:03:14.177Z,9.30
2022-09-30T12:05:07.532Z,9.40
2022-09-30T12:07:52.244Z,10.60
2022-09-30T12:09:28.150Z,10.50
2022-09-30T12:10:56.562Z,9.40
2022-09-30T12:13:22.007Z,9.60
2022-09-30T12:14:52.368Z,9.30
2022-09-30T12:18:19.715Z,7.20
2022-09-30T12:19:50.111Z,7.00
2022-09-30T12:21:39.829Z,8.50
2022-09-30T12:26:20.686Z,7.50
2022-09-30T12:29:51.460Z,6.90
2022-09-30T12:32:19.306Z,6.60
2022-09-30T12:41:26.635Z,7.90
2022-09-30T12:43:48.437Z,9.30
2022-09-30T12:45:15.423Z,8.90
2022-09-30T12:46:47.039Z,9.80
2022-09-30T12:48:17.609Z,11.20
2022-09-30T12:49:45.123Z,10.20
2022-09-30T12:51:19.471Z,11.20
2022-09-30T12:53:06.813Z,11.80
2022-09-30T12:56:08.353Z,10.30
2022-09-30T12:57:37.305Z,10.30
2022-09-30T12:59:04.234Z,11.00
2022-09-30T13:00:34.433Z,12.00
2022-09-30T13:02:53.106Z,11.40
2022-09-30T13:05:11.839Z,11.60
2022-09-30T13:07:12.108Z,11.80
2022-09-30T13:08:43.573Z,11.40
2022-09-30T13:11:01.297Z,12.10
2022-09-30T13:12:31.171Z,10.50
2022-09-30T13:14:00.116Z,9.80
2022-09-30T13:15:30.213Z,10.90
2022-09-30T13:17:02.821Z,9.10
2022-09-30T13:20:04.537Z,10.90
2022-09-30T13:21:32.966Z,9.90
2022-09-30T13:23:01.863Z,9.90
2022-09-30T13:30:44.969Z,11.90
2022-09-30T13:34:06.422Z,9.80
2022-09-30T13:36:59.032Z,10.00
2022-09-30T13:41:13.160Z,11.40
2022-09-30T13:46:02.827Z,12.80
2022-09-30T13:49:40.202Z,10.90
2022-09-30T13:51:40.966Z,10.70
2022-09-30T13:54:54.618Z,10.50
2022-09-30T13:56:50.583Z,10.80
2022-09-30T13:58:41.592Z,11.00
2022-09-30T13:59:50.497Z,10.50
2022-09-30T14:03:10.049Z,10.20
2022-09-30T14:04:44.027Z,10.70
2022-09-30T14:07:05.903Z,10.40
2022-09-30T14:11:21.159Z,9.40
2022-09-30T14:17:39.975Z,9.10
2022-09-30T14:21:31.703Z,9.60
2022-09-30T14:22:58.786Z,8.60
2022-09-30T14:24:33.847Z,9.10
2022-09-30T14:32:28.246Z,8.10
2022-09-30T14:34:47.830Z,8.50
2022-09-30T14:36:38.493Z,7.90
2022-09-30T14:38:06.462Z,7.70
2022-09-30T14:44:09.491Z,8.10
2022-09-30T14:47:05.350Z,8.00
2022-09-30T14:51:34.190Z,7.40
2022-09-30T14:53:04.124Z,7.00
2022-09-30T14:59:34.941Z,6.70
2022-09-30T15:01:25.015Z,6.60
2022-09-30T15:02:53.992Z,6.20
2022-09-30T15:06:22.279Z,6.30
2022-09-30T15:07:52.178Z,6.50
2022-09-30T15:09:21.091Z,6.90
2022-09-30T15:16:19.670Z,5.80
2022-09-30T15:17:49.668Z,6.50
2022-09-30T15:19:18.760Z,6.00
2022-09-30T15:23:45.714Z,6.20
2022-09-30T15:25:46.480Z,5.20
2022-09-30T15:27:44.956Z,5.20
2022-09-30T15:29:12.089Z,4.90
2022-09-30T15:30:42.091Z,5.10
2022-09-30T15:33:41.778Z,5.10
2022-09-30T15:37:02.075Z,4.80
2022-09-30T15:39:20.087Z,5.50
2022-09-30T15:42:37.986Z,5.40
2022-09-30T15:45:06.246Z,5.20
2022-09-30T15:46:54.867Z,5.10
2022-09-30T15:48:25.039Z,4.80
2022-09-30T15:49:55.377Z,5.20
2022-09-30T15:51:25.427Z,4.60
2022-09-30T15:53:25.869Z,5.40
2022-09-30T15:55:42.123Z,5.20
2022-09-30T15:58:12.935Z,5.20
2022-09-30T16:01:38.608Z,4.70
2022-09-30T16:08:40.442Z,5.00
2022-09-30T16:12:07.948Z,4.90
2022-09-30T16:13:37.853Z,4.90
2022-09-30T16:15:07.794Z,4.60
2022-09-30T16:20:20.982Z,5.00
2022-09-30T16:25:04.757Z,4.40
2022-09-30T16:34:50.211Z,5.50
2022-09-30T16:36:20.104Z,5.20
2022-09-30T16:39:27.373Z,5.50
2022-09-30T16:41:26.278Z,5.50
2022-09-30T16:43:25.069Z,5.00
2022-09-30T16:44:53.990Z,6.50
2022-09-30T16:46:22.852Z,6.70
2022-09-30T16:50:13.229Z,5.40
2022-09-30T16:52:44.662Z,5.70
2022-09-30T16:55:32.614Z,5.90
2022-09-30T16:57:01.617Z,6.80
2022-09-30T17:00:50.465Z,8.80
2022-09-30T17:04:51.247Z,8.70
2022-09-30T17:07:51.826Z,11.80
2022-09-30T17:09:19.215Z,10.30
2022-09-30T17:13:51.227Z,7.00
2022-09-30T17:15:24.780Z,7.50
2022-09-30T17:16:49.578Z,6.60
2022-09-30T17:19:10.762Z,6.00
2022-09-30T17:23:08.636Z,6.50
2022-09-30T17:25:10.287Z,6.60
2022-09-30T17:27:27.287Z,6.80
2022-09-30T17:29:47.907Z,5.90
2022-09-30T17:34:25.433Z,5.30
2022-09-30T17:39:12.249Z,5.20
2022-09-30T17:41:02.033Z,5.90
2022-09-30T17:42:30.900Z,5.30
2022-09-30T17:44:49.564Z,5.70
2022-09-30T17:46:50.644Z,5.30
2022-09-30T17:49:09.416Z,6.00
2022-09-30T17:50:40.255Z,5.40
2022-09-30T17:54:17.775Z,6.10
2022-09-30T17:57:59.380Z,4.90
2022-09-30T17:59:49.144Z,5.10
2022-09-30T18:03:18.266Z,5.50
2022-09-30T18:04:48.196Z,4.90
2022-09-30T18:09:17.858Z,6.10
2022-09-30T18:10:47.741Z,6.50
2022-09-30T18:13:16.473Z,6.20
2022-09-30T18:19:39.011Z,6.50
2022-09-30T18:21:39.755Z,6.00
2022-09-30T18:24:36.658Z,4.80
2022-09-30T18:25:45.841Z,4.70
2022-09-30T18:28:26.715Z,4.30
2022-09-30T18:32:16.624Z,4.40
2022-09-30T18:35:37.095Z,3.90
2022-09-30T18:37:26.672Z,3.50
2022-09-30T18:38:55.705Z,4.20
2022-09-30T18:40:25.624Z,4.20
2022-09-30T18:42:00.508Z,4.20
2022-09-30T18:43:28.538Z,4.60
2022-09-30T18:46:29.401Z,4.70
2022-09-30T18:48:29.201Z,5.20
2022-09-30T18:53:26.276Z,5.50
2022-09-30T18:55:44.837Z,4.70
2022-09-30T18:59:23.306Z,4.00
2022-09-30T19:01:51.200Z,2.80
2022-09-30T19:03:50.862Z,2.40
2022-09-30T19:07:46.506Z,2.90
2022-09-30T19:10:05.375Z,2.60
2022-09-30T19:11:35.684Z,2.30
2022-09-30T19:17:20.119Z,2.50
2022-09-30T19:20:39.395Z,2.60
2022-09-30T19:23:02.850Z,2.40
2022-09-30T19:25:29.617Z,2.30
2022-09-30T19:27:18.317Z,2.30
2022-09-30T19:30:15.862Z,2.30
2022-09-30T19:34:01.760Z,2.10
2022-09-30T19:37:01.994Z,2.20
2022-09-30T19:38:37.591Z,2.50
2022-09-30T19:41:40.460Z,2.70
2022-09-30T19:48:26.486Z,1.90
2022-09-30T19:54:04.786Z,2.20
2022-09-30T19:56:55.173Z,2.30
2022-09-30T19:58:24.617Z,2.20
2022-09-30T20:01:27.522Z,3.30
2022-09-30T20:03:25.432Z,2.40
2022-09-30T20:04:54.323Z,2.30
2022-09-30T20:07:52.380Z,2.00
2022-09-30T20:09:22.905Z,1.70
2022-09-30T20:11:19.838Z,2.10
2022-09-30T20:13:46.625Z,2.00
2022-09-30T20:17:07.654Z,2.00
2022-09-30T20:19:38.568Z,2.00
2022-09-30T20:21:07.495Z,2.20
2022-09-30T20:22:38.193Z,2.20
2022-09-30T20:24:26.044Z,2.00
2022-09-30T20:27:47.575Z,2.00
2022-09-30T20:29:14.942Z,1.90
2022-09-30T20:32:02.634Z,2.30
2022-09-30T20:37:48.962Z,2.40
2022-09-30T20:39:15.936Z,2.20
2022-09-30T20:44:50.880Z,1.80
2022-09-30T20:46:19.798Z,1.80
2022-09-30T20:47:48.650Z,1.70
2022-09-30T20:50:37.727Z,2.40
2022-09-30T20:54:15.131Z,1.70
2022-09-30T21:07:45.633Z,2.10
2022-09-30T21:09:14.796Z,2.10
2022-09-30T21:13:55.545Z,1.80
2022-09-30T21:21:09.486Z,1.60
2022-09-30T21:23:07.044Z,1.80
2022-09-30T21:24:36.023Z,2.00
2022-09-30T21:26:34.150Z,2.10
2022-09-30T21:29:30.759Z,2.20
2022-09-30T21:30:59.657Z,2.00
2022-09-30T21:36:40.905Z,2.00
2022-09-30T21:39:37.567Z,2.60
2022-09-30T21:41:06.447Z,1.70
2022-09-30T21:43:34.270Z,2.00
2022-09-30T21:47:59.640Z,2.10
2022-09-30T21:49:28.561Z,2.10
2022-09-30T21:53:25.088Z,2.00
2022-09-30T21:58:41.247Z,2.50
2022-09-30T22:00:39.542Z,2.60
2022-09-30T22:02:08.412Z,2.30
2022-09-30T22:03:37.260Z,2.70
2022-09-30T22:06:04.997Z,2.40
2022-09-30T22:09:59.276Z,2.30
2022-09-30T22:11:29.286Z,2.60
2022-09-30T22:15:14.453Z,2.50
2022-09-30T22:16:43.323Z,2.90
2022-09-30T22:19:01.117Z,2.70
2022-09-30T22:20:59.089Z,3.20
2022-09-30T22:23:25.942Z,2.80
2022-09-30T22:25:54.562Z,2.60
2022-09-30T22:28:52.705Z,3.00
2022-09-30T22:34:14.990Z,2.90
2022-09-30T22:37:40.660Z,2.70
2022-09-30T22:39:09.709Z,3.10
2022-09-30T22:45:52.680Z,2.70
2022-09-30T22:48:10.210Z,3.00
2022-09-30T22:50:38.273Z,2.90
2022-09-30T22:53:35.940Z,2.80
2022-09-30T22:55:04.815Z,3.30
2022-09-30T23:02:15.338Z,3.00
2022-09-30T23:05:12.916Z,2.70
2022-09-30T23:06:41.936Z,3.10
2022-09-30T23:08:40.773Z,2.80
2022-09-30T23:10:09.719Z,3.00
2022-09-30T23:13:35.480Z,3.50
2022-09-30T23:15:34.345Z,3.00
2022-09-30T23:18:31.925Z,2.70
2022-09-30T23:23:46.305Z,3.00
2022-09-30T23:26:43.181Z,2.70
2022-09-30T23:29:40.988Z,3.00
2022-09-30T23:32:09.853Z,3.00
2022-09-30T23:35:13.571Z,3.00
2022-09-30T23:37:13.539Z,2.70
2022-09-30T23:38:42.407Z,3.00
2022-09-30T23:54:23.075Z,3.20
2022-09-30T23:56:20.966Z,3.00
2022-09-30T23:59:18.586Z,3.80
